createdAt,value
2022-07-31T00:02:09.828Z,100991.72
2022-07-31T00:04:37.824Z,100992.66
2022-07-31T00:07:06.526Z,100994.66
2022-07-31T00:09:52.506Z,100992.09
2022-07-31T00:12:23.563Z,100994.00
2022-07-31T00:14:51.933Z,101006.22
2022-07-31T00:17:20.466Z,101002.91
2022-07-31T00:19:48.810Z,101002.97
2022-07-31T00:22:16.563Z,101001.41
2022-07-31T00:24:44.700Z,100999.31
2022-07-31T00:27:12.885Z,100998.09
2022-07-31T00:29:40.689Z,100998.03
2022-07-31T00:32:08.712Z,101003.72
2022-07-31T00:34:36.469Z,101001.78
2022-07-31T00:37:05.404Z,100992.56
2022-07-31T00:39:33.754Z,101000.34
2022-07-31T00:42:01.716Z,100996.09
2022-07-31T00:44:29.821Z,100996.84
2022-07-31T00:47:00.704Z,100995.91
2022-07-31T00:49:37.517Z,100991.78
2022-07-31T00:52:06.637Z,100988.91
2022-07-31T00:54:35.934Z,100985.63
2022-07-31T00:57:04.262Z,100981.81
2022-07-31T00:59:33.335Z,100984.31
2022-07-31T01:02:01.271Z,100975.06
2022-07-31T01:04:31.109Z,100973.00
2022-07-31T01:07:01.475Z,100973.50
2022-07-31T01:09:30.503Z,100964.88
2022-07-31T01:12:03.041Z,100970.72
2022-07-31T01:14:39.278Z,100968.44
2022-07-31T01:17:09.996Z,100965.09
2022-07-31T01:19:47.731Z,100962.16
2022-07-31T01:22:32.999Z,100959.72
2022-07-31T01:25:27.841Z,100958.16
2022-07-31T01:28:15.212Z,100963.13
2022-07-31T01:31:27.029Z,100962.88
2022-07-31T01:34:16.410Z,100951.13
2022-07-31T01:36:52.301Z,100956.09
2022-07-31T01:39:21.579Z,100958.47
2022-07-31T01:41:52.263Z,100949.38
2022-07-31T01:44:24.021Z,100950.66
2022-07-31T01:46:53.641Z,100947.59
2022-07-31T01:49:22.838Z,100946.78
2022-07-31T01:51:51.093Z,100949.56
2022-07-31T01:54:23.144Z,100950.66
2022-07-31T01:56:55.120Z,100958.84
2022-07-31T01:59:24.631Z,100965.72
2022-07-31T02:02:10.170Z,100961.25
2022-07-31T02:04:39.801Z,100968.03
2022-07-31T02:09:52.298Z,100964.56
2022-07-31T02:12:33.333Z,100965.94
2022-07-31T02:15:06.441Z,100971.56
2022-07-31T02:17:37.261Z,100970.38
2022-07-31T02:20:25.626Z,100959.16
2022-07-31T02:22:57.376Z,100965.84
2022-07-31T02:25:26.832Z,100968.69
2022-07-31T02:27:59.193Z,100973.41
2022-07-31T02:30:38.978Z,100970.44
2022-07-31T02:33:19.091Z,100969.34
2022-07-31T02:35:54.036Z,100972.13
2022-07-31T02:38:26.311Z,100965.25
2022-07-31T02:40:58.870Z,100970.78
2022-07-31T02:43:29.730Z,100963.38
2022-07-31T02:45:59.778Z,100971.78
2022-07-31T02:48:29.375Z,100960.81
2022-07-31T02:51:02.243Z,100961.06
2022-07-31T02:53:31.483Z,100954.28
2022-07-31T02:56:05.320Z,100957.81
2022-07-31T02:58:42.119Z,100955.13
2022-07-31T03:01:17.683Z,100957.81
2022-07-31T03:03:45.953Z,100957.25
2022-07-31T03:06:14.519Z,100954.56
2022-07-31T03:08:43.192Z,100956.53
2022-07-31T03:11:13.876Z,100955.50
2022-07-31T03:13:43.727Z,100958.34
2022-07-31T03:16:12.722Z,100959.66
2022-07-31T03:18:41.320Z,100967.19
2022-07-31T03:21:11.208Z,100955.63
2022-07-31T03:23:39.788Z,100953.56
2022-07-31T03:26:17.476Z,100959.13
2022-07-31T03:28:45.761Z,100954.38
2022-07-31T03:31:14.187Z,100966.59
2022-07-31T03:33:42.921Z,100962.34
2022-07-31T03:36:11.142Z,100965.75
2022-07-31T03:38:42.666Z,100959.44
2022-07-31T03:41:25.249Z,100958.38
2022-07-31T03:43:54.484Z,100968.25
2022-07-31T03:46:23.804Z,100969.53
2022-07-31T03:48:53.126Z,100960.50
2022-07-31T03:51:22.452Z,100955.09
2022-07-31T03:53:51.731Z,100953.78
2022-07-31T03:56:46.756Z,100964.47
2022-07-31T03:59:19.709Z,100957.66
2022-07-31T04:01:56.631Z,100957.47
2022-07-31T04:04:59.882Z,100956.91
2022-07-31T04:07:28.493Z,100959.56
2022-07-31T04:09:56.422Z,100951.97
2022-07-31T04:12:24.379Z,100955.22
2022-07-31T04:14:52.957Z,100950.63
2022-07-31T04:17:20.843Z,100945.66
2022-07-31T04:19:49.630Z,100946.94
2022-07-31T04:22:17.602Z,100952.38
2022-07-31T04:24:45.879Z,100953.69
2022-07-31T04:27:48.772Z,100953.44
2022-07-31T04:30:18.192Z,100960.41
2022-07-31T04:32:48.067Z,100959.97
2022-07-31T04:35:22.437Z,100961.81
2022-07-31T04:37:50.550Z,100970.59
2022-07-31T04:40:20.247Z,100966.84
2022-07-31T04:42:48.000Z,100968.44
2022-07-31T04:45:16.169Z,100963.38
2022-07-31T04:47:44.016Z,100968.22
2022-07-31T04:50:12.280Z,100962.34
2022-07-31T04:52:55.537Z,100965.28
2022-07-31T04:55:24.947Z,100963.63
2022-07-31T04:57:53.522Z,100964.16
2022-07-31T05:00:22.005Z,100962.88
2022-07-31T05:02:50.653Z,100959.34
2022-07-31T05:05:18.529Z,100954.97
2022-07-31T05:07:47.716Z,100955.88
2022-07-31T05:10:38.516Z,100952.63
2022-07-31T05:13:06.955Z,100947.91
2022-07-31T05:15:35.661Z,100953.28
2022-07-31T05:18:03.682Z,100942.84
2022-07-31T05:20:52.513Z,100940.19
2022-07-31T05:23:51.047Z,100940.81
2022-07-31T05:26:29.227Z,100937.69
2022-07-31T05:28:59.865Z,100938.44
2022-07-31T05:31:28.305Z,100944.97
2022-07-31T05:33:59.215Z,100949.63
2022-07-31T05:36:28.018Z,100942.94
2022-07-31T05:38:55.913Z,100956.16
2022-07-31T05:41:42.235Z,100947.97
2022-07-31T05:44:28.498Z,100953.78
2022-07-31T05:49:26.811Z,100951.28
2022-07-31T05:51:56.468Z,100961.16
2022-07-31T05:54:24.809Z,100954.41
2022-07-31T05:57:11.646Z,100959.16
2022-07-31T05:59:59.553Z,100958.59
2022-07-31T06:02:39.898Z,100961.31
2022-07-31T06:05:29.943Z,100965.34
2022-07-31T06:08:01.226Z,100967.28
2022-07-31T06:10:33.241Z,100973.44
2022-07-31T06:13:00.929Z,100977.81
2022-07-31T06:15:32.010Z,100967.44
2022-07-31T06:18:02.922Z,100976.00
2022-07-31T06:20:31.480Z,100967.88
2022-07-31T06:23:00.682Z,100972.75
2022-07-31T06:25:38.945Z,100981.84
2022-07-31T06:28:10.385Z,100980.53
2022-07-31T06:30:40.584Z,100975.88
2022-07-31T06:33:08.802Z,100976.56
2022-07-31T06:35:44.584Z,100981.75
2022-07-31T06:38:33.537Z,100976.56
2022-07-31T06:41:40.644Z,100975.84
2022-07-31T06:44:27.048Z,100978.75
2022-07-31T06:47:16.058Z,100973.47
2022-07-31T06:50:03.842Z,100964.19
2022-07-31T06:52:38.548Z,100974.56
2022-07-31T06:55:07.939Z,100978.94
2022-07-31T06:57:37.793Z,100978.50
2022-07-31T07:00:15.128Z,100982.63
2022-07-31T07:02:49.899Z,100973.09
2022-07-31T07:05:18.132Z,100985.13
2022-07-31T07:07:49.657Z,100979.38
2022-07-31T07:10:17.691Z,100973.16
2022-07-31T07:13:00.601Z,100983.09
2022-07-31T07:15:33.576Z,100990.94
2022-07-31T07:18:01.787Z,100990.47
2022-07-31T07:21:01.530Z,100985.28
2022-07-31T07:23:29.379Z,100986.31
2022-07-31T07:26:15.689Z,100993.03
2022-07-31T07:28:44.115Z,100988.03
2022-07-31T07:31:12.267Z,100992.38
2022-07-31T07:33:42.680Z,100988.88
2022-07-31T07:36:31.432Z,100983.28
2022-07-31T07:39:04.270Z,100985.34
2022-07-31T07:41:34.296Z,100985.38
2022-07-31T07:44:02.592Z,100982.66
2022-07-31T07:46:31.528Z,100984.31
2022-07-31T07:49:04.538Z,100982.50
2022-07-31T07:51:59.458Z,100981.09
2022-07-31T07:54:33.904Z,100979.44
2022-07-31T07:57:21.577Z,100982.13
2022-07-31T08:00:10.988Z,100985.03
2022-07-31T08:03:46.450Z,100990.03
2022-07-31T08:05:38.319Z,100981.94
2022-07-31T08:08:07.060Z,100979.84
2022-07-31T08:10:56.398Z,100980.06
2022-07-31T08:13:40.809Z,100982.75
2022-07-31T08:16:23.894Z,100989.78
2022-07-31T08:18:55.799Z,100985.59
2022-07-31T08:21:24.502Z,100981.69
2022-07-31T08:23:52.911Z,100973.53
2022-07-31T08:26:21.419Z,100973.47
2022-07-31T08:28:51.225Z,100979.31
2022-07-31T08:31:24.043Z,100972.47
2022-07-31T08:34:30.601Z,100972.00
2022-07-31T08:38:01.602Z,100974.34
2022-07-31T08:39:52.566Z,100977.00
2022-07-31T08:42:20.911Z,100978.53
2022-07-31T08:44:49.045Z,100974.09
2022-07-31T08:47:20.005Z,100967.66
2022-07-31T08:49:50.638Z,100976.19
2022-07-31T08:52:25.206Z,100975.28
2022-07-31T08:55:54.769Z,100972.94
2022-07-31T08:58:07.922Z,100968.09
2022-07-31T09:00:36.085Z,100966.25
2022-07-31T09:03:05.051Z,100968.72
2022-07-31T09:05:45.247Z,100964.91
2022-07-31T09:08:16.262Z,100975.03
2022-07-31T09:10:50.238Z,100983.03
2022-07-31T09:13:20.045Z,100969.63
2022-07-31T09:15:52.699Z,100976.97
2022-07-31T09:18:24.857Z,100979.81
2022-07-31T09:21:06.708Z,100977.03
2022-07-31T09:23:46.369Z,100977.34
2022-07-31T09:26:15.560Z,100979.19
2022-07-31T09:28:46.485Z,100966.81
2022-07-31T09:31:15.540Z,100967.78
2022-07-31T09:34:00.569Z,100973.91
2022-07-31T09:36:34.972Z,100967.00
2022-07-31T09:39:27.871Z,100966.69
2022-07-31T09:42:16.753Z,100967.34
2022-07-31T09:45:24.520Z,100967.41
2022-07-31T09:48:08.258Z,100960.28
2022-07-31T09:50:36.950Z,100960.31
2022-07-31T09:53:06.702Z,100958.81
2022-07-31T09:55:36.686Z,100953.97
2022-07-31T09:58:04.837Z,100944.78
2022-07-31T10:00:39.068Z,100955.69
2022-07-31T10:03:08.331Z,100951.84
2022-07-31T10:05:38.312Z,100946.88
2022-07-31T10:08:07.846Z,100955.00
2022-07-31T10:10:55.748Z,100954.41
2022-07-31T10:13:46.344Z,100949.44
2022-07-31T10:16:15.197Z,100942.56
2022-07-31T10:18:57.107Z,100943.09
2022-07-31T10:21:54.794Z,100938.44
2022-07-31T10:24:31.603Z,100934.06
2022-07-31T10:27:10.564Z,100933.84
2022-07-31T10:29:41.731Z,100933.94
2022-07-31T10:32:10.662Z,100932.53
2022-07-31T10:34:49.466Z,100937.00
2022-07-31T10:37:53.376Z,100935.81
2022-07-31T10:40:54.959Z,100932.97
2022-07-31T10:43:27.083Z,100924.41
2022-07-31T10:46:09.615Z,100928.88
2022-07-31T10:49:08.739Z,100929.41
2022-07-31T10:51:55.413Z,100917.47
2022-07-31T10:54:58.380Z,100920.88
2022-07-31T10:57:56.236Z,100916.22
2022-07-31T11:00:39.561Z,100912.75
2022-07-31T11:03:25.958Z,100912.91
2022-07-31T11:06:42.925Z,100904.44
2022-07-31T11:09:31.644Z,100906.00
2022-07-31T11:12:19.789Z,100901.41
2022-07-31T11:15:24.698Z,100902.78
2022-07-31T11:18:26.732Z,100898.25
2022-07-31T11:21:38.087Z,100898.34
2022-07-31T11:24:03.038Z,100891.41
2022-07-31T11:26:41.648Z,100891.41
2022-07-31T11:30:01.085Z,100892.00
2022-07-31T11:32:15.103Z,100887.00
2022-07-31T11:34:54.042Z,100891.81
2022-07-31T11:37:41.168Z,100886.06
2022-07-31T11:40:14.816Z,100882.44
2022-07-31T11:42:46.347Z,100871.28
2022-07-31T11:45:17.764Z,100875.13
2022-07-31T11:48:11.263Z,100880.88
2022-07-31T11:50:43.982Z,100877.78
2022-07-31T11:53:13.052Z,100879.72
2022-07-31T11:55:47.974Z,100872.97
2022-07-31T11:58:18.003Z,100878.34
2022-07-31T12:01:06.593Z,100870.28
2022-07-31T12:03:37.951Z,100867.34
2022-07-31T12:06:08.426Z,100867.84
2022-07-31T12:08:38.784Z,100861.28
2022-07-31T12:11:09.535Z,100845.25
2022-07-31T12:13:39.155Z,100848.81
2022-07-31T12:16:09.804Z,100847.16
2022-07-31T12:18:51.023Z,100845.44
2022-07-31T12:21:20.616Z,100847.13
2022-07-31T12:23:53.227Z,100834.13
2022-07-31T12:26:33.582Z,100831.16
2022-07-31T12:29:04.643Z,100826.28
2022-07-31T12:31:48.212Z,100830.00
2022-07-31T12:34:28.161Z,100834.56
2022-07-31T12:36:59.937Z,100820.69
2022-07-31T12:39:47.585Z,100826.53
2022-07-31T12:42:30.834Z,100821.47
2022-07-31T12:45:19.606Z,100824.72
2022-07-31T12:47:53.612Z,100819.97
2022-07-31T12:50:22.981Z,100823.19
2022-07-31T12:52:51.427Z,100802.25
2022-07-31T12:55:20.071Z,100806.47
2022-07-31T12:57:51.421Z,100805.44
2022-07-31T13:00:23.543Z,100800.50
2022-07-31T13:02:53.609Z,100790.25
2022-07-31T13:05:23.138Z,100787.06
2022-07-31T13:07:51.913Z,100785.25
2022-07-31T13:10:24.721Z,100793.56
2022-07-31T13:12:53.427Z,100786.66
2022-07-31T13:15:29.665Z,100788.28
2022-07-31T13:17:59.318Z,100782.00
2022-07-31T13:20:27.368Z,100775.59
2022-07-31T13:22:55.576Z,100777.97
2022-07-31T13:25:23.906Z,100774.53
2022-07-31T13:27:51.824Z,100769.47
2022-07-31T13:30:19.897Z,100778.22
2022-07-31T13:32:47.587Z,100781.63
2022-07-31T13:35:24.029Z,100766.50
2022-07-31T13:37:56.016Z,100771.63
2022-07-31T13:40:43.231Z,100771.47
2022-07-31T13:43:11.810Z,100762.69
2022-07-31T13:45:40.372Z,100760.47
2022-07-31T13:48:10.096Z,100749.84
2022-07-31T13:50:42.127Z,100740.91
2022-07-31T13:53:10.267Z,100759.16
2022-07-31T13:55:38.692Z,100756.78
2022-07-31T13:58:07.386Z,100740.16
2022-07-31T14:00:35.855Z,100739.97
2022-07-31T14:03:03.776Z,100743.88
2022-07-31T14:05:32.624Z,100746.03
2022-07-31T14:08:32.873Z,100737.50
2022-07-31T14:10:57.486Z,100736.28
2022-07-31T14:13:25.966Z,100725.28
2022-07-31T14:15:54.252Z,100733.50
2022-07-31T14:18:23.505Z,100729.66
2022-07-31T14:20:52.075Z,100729.34
2022-07-31T14:23:19.891Z,100719.53
2022-07-31T14:25:47.944Z,100710.53
2022-07-31T14:28:17.052Z,100722.69
2022-07-31T14:30:46.586Z,100715.03
2022-07-31T14:33:17.794Z,100719.97
2022-07-31T14:35:46.166Z,100716.28
2022-07-31T14:38:26.937Z,100720.41
2022-07-31T14:40:56.270Z,100710.44
2022-07-31T14:43:24.371Z,100709.81
2022-07-31T14:45:52.605Z,100707.97
2022-07-31T14:48:22.029Z,100708.25
2022-07-31T14:50:49.781Z,100704.59
2022-07-31T14:53:18.129Z,100703.84
2022-07-31T14:55:45.950Z,100705.41
2022-07-31T14:58:13.819Z,100693.44
2022-07-31T15:00:42.466Z,100703.69
2022-07-31T15:03:10.270Z,100701.69
2022-07-31T15:06:40.121Z,100693.38
2022-07-31T15:08:27.746Z,100697.19
2022-07-31T15:10:55.577Z,100703.72
2022-07-31T15:13:24.303Z,100690.22
2022-07-31T15:15:52.158Z,100691.88
2022-07-31T15:18:20.334Z,100684.78
2022-07-31T15:20:52.885Z,100684.78
2022-07-31T15:23:21.674Z,100678.81
2022-07-31T15:25:50.164Z,100690.13
2022-07-31T15:28:17.915Z,100687.16
2022-07-31T15:30:46.018Z,100679.44
2022-07-31T15:33:14.768Z,100683.72
2022-07-31T15:35:42.873Z,100678.53
2022-07-31T15:38:11.747Z,100685.03
2022-07-31T15:40:39.692Z,100672.81
2022-07-31T15:43:07.754Z,100673.47
2022-07-31T15:45:35.546Z,100685.78
2022-07-31T15:48:06.976Z,100678.91
2022-07-31T15:50:38.235Z,100677.66
2022-07-31T15:53:06.564Z,100679.16
2022-07-31T15:55:34.535Z,100673.72
2022-07-31T15:58:02.767Z,100672.22
2022-07-31T16:00:30.551Z,100670.84
2022-07-31T16:02:59.674Z,100670.72
2022-07-31T16:05:36.768Z,100669.03
2022-07-31T16:08:29.639Z,100667.50
2022-07-31T16:10:56.019Z,100661.03
2022-07-31T16:13:25.341Z,100654.13
2022-07-31T16:15:53.295Z,100656.47
2022-07-31T16:18:21.839Z,100649.44
2022-07-31T16:20:50.123Z,100649.88
2022-07-31T16:23:17.936Z,100644.34
2022-07-31T16:25:45.817Z,100648.47
2022-07-31T16:28:15.067Z,100641.81
2022-07-31T16:30:45.659Z,100634.25
2022-07-31T16:33:13.821Z,100629.09
2022-07-31T16:35:41.956Z,100635.47
2022-07-31T16:38:09.855Z,100642.38
2022-07-31T16:40:37.668Z,100641.56
2022-07-31T16:43:49.694Z,100638.13
2022-07-31T16:45:56.039Z,100634.88
2022-07-31T16:48:24.375Z,100641.56
2022-07-31T16:50:53.481Z,100631.97
2022-07-31T16:54:11.198Z,100628.44
2022-07-31T16:56:14.485Z,100635.59
2022-07-31T16:58:43.782Z,100631.25
2022-07-31T17:01:53.752Z,100635.22
2022-07-31T17:04:03.929Z,100632.91
2022-07-31T17:06:37.906Z,100625.31
2022-07-31T17:09:16.985Z,100623.84
2022-07-31T17:11:48.460Z,100630.78
2022-07-31T17:14:18.354Z,100622.25
2022-07-31T17:16:48.891Z,100627.69
2022-07-31T17:19:41.649Z,100626.47
2022-07-31T17:22:07.596Z,100630.81
2022-07-31T17:24:38.047Z,100633.97
2022-07-31T17:27:08.535Z,100635.53
2022-07-31T17:29:37.973Z,100635.59
2022-07-31T17:32:05.927Z,100633.09
2022-07-31T17:34:35.673Z,100637.97
2022-07-31T17:37:04.944Z,100646.50
2022-07-31T17:39:33.214Z,100644.16
2022-07-31T17:42:01.444Z,100647.38
2022-07-31T17:44:30.977Z,100660.09
2022-07-31T17:46:59.742Z,100653.50
2022-07-31T17:49:32.091Z,100657.63
2022-07-31T17:52:00.462Z,100655.56
2022-07-31T17:54:30.710Z,100664.97
2022-07-31T17:56:59.862Z,100661.41
2022-07-31T17:59:28.627Z,100654.47
2022-07-31T18:02:00.445Z,100657.66
2022-07-31T18:04:31.782Z,100662.19
2022-07-31T18:07:01.473Z,100665.69
2022-07-31T18:09:29.278Z,100669.75
2022-07-31T18:11:58.069Z,100666.28
2022-07-31T18:14:26.298Z,100667.34
2022-07-31T18:16:55.104Z,100664.09
2022-07-31T18:19:23.857Z,100668.72
2022-07-31T18:21:53.460Z,100672.72
2022-07-31T18:24:22.659Z,100675.13
2022-07-31T18:26:51.860Z,100672.56
2022-07-31T18:29:20.620Z,100681.25
2022-07-31T18:31:49.115Z,100679.34
2022-07-31T18:34:17.619Z,100689.09
2022-07-31T18:36:45.997Z,100678.16
2022-07-31T18:39:13.668Z,100674.88
2022-07-31T18:41:48.316Z,100679.63
2022-07-31T18:44:17.097Z,100681.53
2022-07-31T18:46:48.269Z,100683.66
2022-07-31T18:50:59.944Z,100679.69
2022-07-31T18:52:05.615Z,100688.31
2022-07-31T18:54:33.715Z,100693.28
2022-07-31T18:57:04.269Z,100689.47
2022-07-31T18:59:32.307Z,100697.00
2022-07-31T19:02:00.754Z,100708.47
2022-07-31T19:04:29.107Z,100707.22
2022-07-31T19:06:56.873Z,100710.66
2022-07-31T19:09:25.412Z,100706.53
2022-07-31T19:11:58.556Z,100706.88
2022-07-31T19:14:31.479Z,100706.06
2022-07-31T19:17:00.660Z,100703.81
2022-07-31T19:19:30.403Z,100707.03
2022-07-31T19:22:16.770Z,100719.97
2022-07-31T19:24:44.993Z,100718.56
2022-07-31T19:27:13.269Z,100728.25
2022-07-31T19:29:41.608Z,100732.34
2022-07-31T19:32:09.454Z,100730.47
2022-07-31T19:34:37.908Z,100742.59
2022-07-31T19:37:05.908Z,100740.13
2022-07-31T19:39:38.301Z,100747.88
2022-07-31T19:42:11.620Z,100751.09
2022-07-31T19:44:40.927Z,100751.31
2022-07-31T19:47:09.063Z,100748.72
2022-07-31T19:49:38.614Z,100750.09
2022-07-31T19:52:08.845Z,100759.75
2022-07-31T19:54:37.922Z,100756.47
2022-07-31T19:57:06.382Z,100753.16
2022-07-31T19:59:34.157Z,100758.34
2022-07-31T20:02:02.050Z,100761.41
2022-07-31T20:04:30.141Z,100766.97
2022-07-31T20:06:58.299Z,100765.31
2022-07-31T20:09:26.223Z,100768.03
2022-07-31T20:11:54.673Z,100771.84
2022-07-31T20:14:23.635Z,100767.75
2022-07-31T20:16:51.394Z,100764.75
2022-07-31T20:19:19.624Z,100765.69
2022-07-31T20:21:47.371Z,100769.22
2022-07-31T20:24:17.777Z,100772.44
2022-07-31T20:26:46.015Z,100769.63
2022-07-31T20:29:14.252Z,100778.47
2022-07-31T20:31:42.300Z,100781.41
2022-07-31T20:34:10.039Z,100780.94
2022-07-31T20:36:39.579Z,100778.69
2022-07-31T20:39:07.789Z,100777.06
2022-07-31T20:41:36.548Z,100781.09
2022-07-31T20:44:04.475Z,100773.84
2022-07-31T20:46:33.198Z,100782.13
2022-07-31T20:49:01.038Z,100780.03
2022-07-31T20:51:28.839Z,100792.03
2022-07-31T20:53:56.791Z,100781.91
2022-07-31T20:56:25.030Z,100780.47
2022-07-31T20:58:53.602Z,100787.09
2022-07-31T21:01:22.076Z,100790.75
2022-07-31T21:03:49.985Z,100795.72
2022-07-31T21:06:19.288Z,100795.72
2022-07-31T21:08:47.786Z,100792.47
2022-07-31T21:11:16.206Z,100790.41
2022-07-31T21:13:45.402Z,100793.97
2022-07-31T21:16:13.861Z,100789.44
2022-07-31T21:18:43.443Z,100793.13
2022-07-31T21:21:12.382Z,100794.63
2022-07-31T21:23:40.132Z,100797.88
2022-07-31T21:26:08.759Z,100796.19
2022-07-31T21:28:37.001Z,100790.72
2022-07-31T21:31:05.448Z,100789.84
2022-07-31T21:33:33.972Z,100795.66
2022-07-31T21:36:02.478Z,100797.22
2022-07-31T21:38:30.872Z,100803.66
2022-07-31T21:40:58.837Z,100799.25
2022-07-31T21:43:30.495Z,100800.13
2022-07-31T21:46:09.267Z,100800.59
2022-07-31T21:48:39.116Z,100802.31
2022-07-31T21:51:07.378Z,100810.63
2022-07-31T21:53:35.757Z,100807.50
2022-07-31T21:56:03.981Z,100804.59
2022-07-31T21:58:31.823Z,100812.84
2022-07-31T22:00:59.590Z,100807.72
2022-07-31T22:03:27.513Z,100812.03
2022-07-31T22:06:14.257Z,100810.66
2022-07-31T22:08:42.836Z,100820.94
2022-07-31T22:11:10.634Z,100816.84
2022-07-31T22:13:38.502Z,100819.69
2022-07-31T22:16:07.080Z,100830.03
2022-07-31T22:18:36.149Z,100826.72
2022-07-31T22:21:07.491Z,100828.00
2022-07-31T22:23:36.593Z,100822.66
2022-07-31T22:26:04.860Z,100829.50
2022-07-31T22:28:33.485Z,100828.25
2022-07-31T22:31:02.111Z,100835.72
2022-07-31T22:33:30.134Z,100837.38
2022-07-31T22:36:02.713Z,100837.25
2022-07-31T22:38:30.914Z,100833.31
2022-07-31T22:40:59.973Z,100835.00
2022-07-31T22:44:14.094Z,100837.09
2022-07-31T22:46:17.340Z,100838.72
2022-07-31T22:48:46.070Z,100831.88
2022-07-31T22:51:14.803Z,100839.53
2022-07-31T22:53:44.476Z,100836.00
2022-07-31T22:56:18.268Z,100829.19
2022-07-31T22:58:46.833Z,100821.94
2022-07-31T23:01:14.992Z,100824.84
2022-07-31T23:03:42.799Z,100828.16
2022-07-31T23:06:30.084Z,100838.09
2022-07-31T23:08:59.175Z,100833.13
2022-07-31T23:11:27.782Z,100832.53
2022-07-31T23:13:55.808Z,100836.03
2022-07-31T23:16:23.611Z,100827.97
2022-07-31T23:18:52.181Z,100826.91
2022-07-31T23:21:19.997Z,100829.59
2022-07-31T23:23:49.628Z,100826.50
2022-07-31T23:26:19.873Z,100827.34
2022-07-31T23:28:48.186Z,100829.00
2022-07-31T23:31:16.345Z,100830.25
2022-07-31T23:33:45.008Z,100839.78
2022-07-31T23:36:14.485Z,100837.28
2022-07-31T23:38:43.740Z,100830.63
2022-07-31T23:41:12.521Z,100826.50
2022-07-31T23:43:40.712Z,100828.75
2022-07-31T23:46:16.119Z,100835.41
2022-07-31T23:48:45.148Z,100826.69
2022-07-31T23:51:12.868Z,100829.81
2022-07-31T23:53:41.209Z,100824.00
2022-07-31T23:56:13.211Z,100824.44
2022-07-31T23:58:47.643Z,100822.97
